sensor_id;sensor_type;location;lat;lon;timestamp;pressure;altitude;pressure_sealevel;temperature;humidity
79006;BME280;69202;45.498;-73.582;2023-04-12T00:01:57;99704.09;;;18.71;33.38
79006;BME280;69202;45.498;-73.582;2023-04-12T00:04:23;99766.47;;;19.10;33.43
79006;BME280;69202;45.498;-73.582;2023-04-12T00:06:51;99762.38;;;19.02;33.63
79006;BME280;69202;45.498;-73.582;2023-04-12T00:09:19;99751.69;;;19.01;33.49
79006;BME280;69202;45.498;-73.582;2023-04-12T00:11:45;99666.31;;;18.53;33.57
79006;BME280;69202;45.498;-73.582;2023-04-12T00:14:11;99762.63;;;19.06;33.73
79006;BME280;69202;45.498;-73.582;2023-04-12T00:16:37;99779.06;;;19.06;34.07
79006;BME280;69202;45.498;-73.582;2023-04-12T00:19:04;99754.72;;;18.84;33.97
79006;BME280;69202;45.498;-73.582;2023-04-12T00:21:31;99743.28;;;18.67;34.06
79006;BME280;69202;45.498;-73.582;2023-04-12T00:23:57;99747.63;;;18.63;34.24
79006;BME280;69202;45.498;-73.582;2023-04-12T00:26:23;99757.25;;;18.65;34.15
79006;BME280;69202;45.498;-73.582;2023-04-12T00:28:51;99830.03;;;19.02;33.80
79006;BME280;69202;45.498;-73.582;2023-04-12T00:31:17;99811.69;;;18.92;33.90
79006;BME280;69202;45.498;-73.582;2023-04-12T00:33:43;99823.75;;;18.91;34.00
79006;BME280;69202;45.498;-73.582;2023-04-12T00:36:11;99833.34;;;18.89;34.24
79006;BME280;69202;45.498;-73.582;2023-04-12T00:38:36;99843.19;;;18.85;34.37
79006;BME280;69202;45.498;-73.582;2023-04-12T00:41:02;99838.84;;;18.89;33.60
79006;BME280;69202;45.498;-73.582;2023-04-12T00:43:28;99784.63;;;18.45;33.99
79006;BME280;69202;45.498;-73.582;2023-04-12T00:46:02;99853.91;;;18.81;33.72
79006;BME280;69202;45.498;-73.582;2023-04-12T00:48:28;99822.94;;;18.50;33.62
79006;BME280;69202;45.498;-73.582;2023-04-12T00:50:55;99856.09;;;18.69;33.43
79006;BME280;69202;45.498;-73.582;2023-04-12T00:53:22;99833.31;;;18.43;33.30
79006;BME280;69202;45.498;-73.582;2023-04-12T00:55:49;99878.28;;;18.72;33.47
79006;BME280;69202;45.498;-73.582;2023-04-12T00:58:16;99894.72;;;18.67;33.21
79006;BME280;69202;45.498;-73.582;2023-04-12T01:00:42;99902.59;;;18.64;33.58
79006;BME280;69202;45.498;-73.582;2023-04-12T01:03:21;99900.16;;;18.57;32.91
79006;BME280;69202;45.498;-73.582;2023-04-12T01:06:23;99895.75;;;18.51;33.21
79006;BME280;69202;45.498;-73.582;2023-04-12T01:17:13;99835.94;;;17.72;31.20
79006;BME280;69202;45.498;-73.582;2023-04-12T01:19:58;99928.84;;;18.34;30.57
79006;BME280;69202;45.498;-73.582;2023-04-12T01:28:07;99899.50;;;18.09;29.56
79006;BME280;69202;45.498;-73.582;2023-04-12T01:30:35;99845.19;;;17.71;28.69
79006;BME280;69202;45.498;-73.582;2023-04-12T01:33:04;99927.19;;;18.28;27.94
79006;BME280;69202;45.498;-73.582;2023-04-12T01:35:31;99927.44;;;18.16;28.19
79006;BME280;69202;45.498;-73.582;2023-04-12T01:37:58;99889.03;;;17.91;27.32
79006;BME280;69202;45.498;-73.582;2023-04-12T01:40:27;99899.41;;;17.89;26.73
79006;BME280;69202;45.498;-73.582;2023-04-12T01:43:13;99942.22;;;18.21;27.86
79006;BME280;69202;45.498;-73.582;2023-04-12T01:45:42;99946.31;;;18.23;26.14
79006;BME280;69202;45.498;-73.582;2023-04-12T01:48:10;99943.03;;;18.21;25.20
79006;BME280;69202;45.498;-73.582;2023-04-12T01:53:12;99950.94;;;18.12;24.94
79006;BME280;69202;45.498;-73.582;2023-04-12T01:55:40;99908.44;;;17.84;24.46
79006;BME280;69202;45.498;-73.582;2023-04-12T01:58:11;99941.03;;;18.01;24.33
79006;BME280;69202;45.498;-73.582;2023-04-12T02:00:37;99951.69;;;17.98;23.98
79006;BME280;69202;45.498;-73.582;2023-04-12T02:03:08;99907.59;;;17.79;23.80
79006;BME280;69202;45.498;-73.582;2023-04-12T02:05:34;99937.38;;;17.75;23.75
79006;BME280;69202;45.498;-73.582;2023-04-12T02:08:01;99973.63;;;18.08;23.83
79006;BME280;69202;45.498;-73.582;2023-04-12T02:10:32;99899.78;;;17.60;23.99
79006;BME280;69202;45.498;-73.582;2023-04-12T02:13:01;99931.38;;;17.78;23.63
79006;BME280;69202;45.498;-73.582;2023-04-12T02:15:28;99978.00;;;18.09;23.68
79006;BME280;69202;45.498;-73.582;2023-04-12T02:17:54;99967.84;;;17.99;23.57
79006;BME280;69202;45.498;-73.582;2023-04-12T02:20:21;99984.03;;;18.06;23.91
79006;BME280;69202;45.498;-73.582;2023-04-12T02:22:49;100001.50;;;18.00;23.99
79006;BME280;69202;45.498;-73.582;2023-04-12T02:25:15;99959.72;;;17.67;24.31
79006;BME280;69202;45.498;-73.582;2023-04-12T02:27:45;99940.53;;;17.57;24.65
79006;BME280;69202;45.498;-73.582;2023-04-12T02:30:14;99998.44;;;17.91;24.84
79006;BME280;69202;45.498;-73.582;2023-04-12T02:32:40;99996.78;;;17.90;24.88
79006;BME280;69202;45.498;-73.582;2023-04-12T02:35:13;99998.41;;;17.86;25.32
79006;BME280;69202;45.498;-73.582;2023-04-12T02:37:43;99997.59;;;17.85;25.35
79006;BME280;69202;45.498;-73.582;2023-04-12T02:40:12;100009.09;;;17.87;25.75
79006;BME280;69202;45.498;-73.582;2023-04-12T02:42:43;100007.72;;;17.85;25.89
79006;BME280;69202;45.498;-73.582;2023-04-12T02:45:10;100013.69;;;17.82;26.06
79006;BME280;69202;45.498;-73.582;2023-04-12T02:47:36;99922.75;;;17.17;25.83
79006;BME280;69202;45.498;-73.582;2023-04-12T02:50:03;100007.09;;;17.73;26.19
79006;BME280;69202;45.498;-73.582;2023-04-12T02:52:29;100019.59;;;17.69;26.10
79006;BME280;69202;45.498;-73.582;2023-04-12T02:54:57;99970.75;;;17.40;26.49
79006;BME280;69202;45.498;-73.582;2023-04-12T02:57:23;99966.41;;;17.44;26.55
79006;BME280;69202;45.498;-73.582;2023-04-12T02:59:52;99980.03;;;17.39;26.39
79006;BME280;69202;45.498;-73.582;2023-04-12T03:02:20;99933.06;;;17.05;26.68
79006;BME280;69202;45.498;-73.582;2023-04-12T03:04:46;100020.41;;;17.64;26.67
79006;BME280;69202;45.498;-73.582;2023-04-12T03:07:18;99940.72;;;17.08;26.40
79006;BME280;69202;45.498;-73.582;2023-04-12T03:09:49;99949.91;;;16.97;26.58
79006;BME280;69202;45.498;-73.582;2023-04-12T03:12:15;100035.34;;;17.51;26.84
79006;BME280;69202;45.498;-73.582;2023-04-12T03:14:41;99997.34;;;17.18;26.56
79006;BME280;69202;45.498;-73.582;2023-04-12T03:17:08;99985.84;;;17.11;27.10
79006;BME280;69202;45.498;-73.582;2023-04-12T03:19:34;100042.88;;;17.39;26.81
79006;BME280;69202;45.498;-73.582;2023-04-12T03:22:02;100050.22;;;17.34;26.87
79006;BME280;69202;45.498;-73.582;2023-04-12T03:24:29;100004.06;;;17.05;27.42
79006;BME280;69202;45.498;-73.582;2023-04-12T03:27:00;100008.16;;;17.02;27.73
79006;BME280;69202;45.498;-73.582;2023-04-12T03:29:29;100035.09;;;17.21;27.26
79006;BME280;69202;45.498;-73.582;2023-04-12T03:31:56;99944.94;;;16.62;27.33
79006;BME280;69202;45.498;-73.582;2023-04-12T03:34:26;99993.06;;;16.95;27.32
79006;BME280;69202;45.498;-73.582;2023-04-12T03:36:57;100043.03;;;17.22;27.22
79006;BME280;69202;45.498;-73.582;2023-04-12T03:39:23;100055.53;;;17.18;27.27
79006;BME280;69202;45.498;-73.582;2023-04-12T03:41:50;100059.09;;;17.19;27.29
79006;BME280;69202;45.498;-73.582;2023-04-12T03:44:17;99956.31;;;16.54;26.45
79006;BME280;69202;45.498;-73.582;2023-04-12T03:46:43;99946.13;;;16.44;26.41
79006;BME280;69202;45.498;-73.582;2023-04-12T03:49:10;99981.66;;;16.49;26.98
79006;BME280;69202;45.498;-73.582;2023-04-12T03:51:36;99993.53;;;16.65;26.89
79006;BME280;69202;45.498;-73.582;2023-04-12T03:54:11;100064.44;;;17.03;26.77
79006;BME280;69202;45.498;-73.582;2023-04-12T03:56:37;100049.06;;;16.97;26.70
79006;BME280;69202;45.498;-73.582;2023-04-12T03:59:05;100066.03;;;16.99;27.08
79006;BME280;69202;45.498;-73.582;2023-04-12T04:01:32;100014.56;;;16.64;27.08
79006;BME280;69202;45.498;-73.582;2023-04-12T04:03:59;99987.56;;;16.41;27.24
79006;BME280;69202;45.498;-73.582;2023-04-12T04:06:25;100065.16;;;16.94;27.17
79006;BME280;69202;45.498;-73.582;2023-04-12T04:08:51;99982.94;;;16.41;27.07
79006;BME280;69202;45.498;-73.582;2023-04-12T04:11:17;100053.03;;;16.85;27.32
79006;BME280;69202;45.498;-73.582;2023-04-12T04:13:43;100036.91;;;16.61;27.24
79006;BME280;69202;45.498;-73.582;2023-04-12T04:16:11;100010.75;;;16.16;27.06
79006;BME280;69202;45.498;-73.582;2023-04-12T04:18:37;99985.84;;;16.13;26.62
79006;BME280;69202;45.498;-73.582;2023-04-12T04:21:03;100084.03;;;16.73;26.60
79006;BME280;69202;45.498;-73.582;2023-04-12T04:23:31;100037.47;;;16.36;26.73
79006;BME280;69202;45.498;-73.582;2023-04-12T04:26:07;100039.78;;;16.28;26.85
79006;BME280;69202;45.498;-73.582;2023-04-12T04:28:37;99995.75;;;15.97;27.09
79006;BME280;69202;45.498;-73.582;2023-04-12T04:31:07;100085.78;;;16.41;27.36
79006;BME280;69202;45.498;-73.582;2023-04-12T04:33:35;99994.41;;;15.78;27.10
79006;BME280;69202;45.498;-73.582;2023-04-12T04:36:01;100014.06;;;15.80;27.06
79006;BME280;69202;45.498;-73.582;2023-04-12T04:38:31;100105.88;;;16.35;27.31
79006;BME280;69202;45.498;-73.582;2023-04-12T04:41:00;100106.41;;;16.32;27.18
79006;BME280;69202;45.498;-73.582;2023-04-12T04:43:27;100032.56;;;15.78;27.67
79006;BME280;69202;45.498;-73.582;2023-04-12T04:45:58;100050.50;;;15.74;27.57
79006;BME280;69202;45.498;-73.582;2023-04-12T04:48:25;100114.56;;;16.10;27.09
79006;BME280;69202;45.498;-73.582;2023-04-12T04:50:51;100068.25;;;15.76;27.35
79006;BME280;69202;45.498;-73.582;2023-04-12T04:53:18;100075.50;;;15.71;27.10
79006;BME280;69202;45.498;-73.582;2023-04-12T04:55:45;100067.66;;;15.57;27.07
79006;BME280;69202;45.498;-73.582;2023-04-12T04:58:13;100144.81;;;15.92;27.37
79006;BME280;69202;45.498;-73.582;2023-04-12T05:00:39;100075.81;;;15.57;26.97
79006;BME280;69202;45.498;-73.582;2023-04-12T05:03:05;100136.06;;;15.90;26.26
79006;BME280;69202;45.498;-73.582;2023-04-12T05:05:31;100074.84;;;15.47;25.86
79006;BME280;69202;45.498;-73.582;2023-04-12T05:07:57;100089.78;;;15.44;25.14
79006;BME280;69202;45.498;-73.582;2023-04-12T05:10:23;100141.59;;;15.78;24.33
79006;BME280;69202;45.498;-73.582;2023-04-12T05:12:49;100122.94;;;15.70;23.70
79006;BME280;69202;45.498;-73.582;2023-04-12T05:15:15;100043.59;;;15.21;23.40
79006;BME280;69202;45.498;-73.582;2023-04-12T05:17:41;100073.91;;;15.41;22.82
79006;BME280;69202;45.498;-73.582;2023-04-12T05:20:07;100128.78;;;15.78;22.53
79006;BME280;69202;45.498;-73.582;2023-04-12T05:22:35;100072.63;;;15.44;22.52
79006;BME280;69202;45.498;-73.582;2023-04-12T05:25:01;100132.91;;;15.81;22.62
79006;BME280;69202;45.498;-73.582;2023-04-12T05:27:28;100075.56;;;15.42;22.69
79006;BME280;69202;45.498;-73.582;2023-04-12T05:29:58;100125.97;;;15.73;23.01
79006;BME280;69202;45.498;-73.582;2023-04-12T05:32:24;100123.03;;;15.75;23.05
79006;BME280;69202;45.498;-73.582;2023-04-12T05:34:50;100120.19;;;15.70;23.79
79006;BME280;69202;45.498;-73.582;2023-04-12T05:37:17;100133.75;;;15.65;24.11
79006;BME280;69202;45.498;-73.582;2023-04-12T05:39:43;100136.13;;;15.61;23.77
79006;BME280;69202;45.498;-73.582;2023-04-12T05:42:09;100115.19;;;15.50;23.77
79006;BME280;69202;45.498;-73.582;2023-04-12T05:44:34;100082.16;;;15.29;24.01
79006;BME280;69202;45.498;-73.582;2023-04-12T05:47:04;100133.06;;;15.57;24.04
79006;BME280;69202;45.498;-73.582;2023-04-12T05:49:30;100138.19;;;15.54;23.70
79006;BME280;69202;45.498;-73.582;2023-04-12T05:51:57;100136.16;;;15.49;23.76
79006;BME280;69202;45.498;-73.582;2023-04-12T05:54:23;100153.28;;;15.45;24.06
79006;BME280;69202;45.498;-73.582;2023-04-12T05:56:50;100075.19;;;15.05;24.11
79006;BME280;69202;45.498;-73.582;2023-04-12T05:59:18;100107.13;;;15.10;23.73
79006;BME280;69202;45.498;-73.582;2023-04-12T06:01:45;100163.97;;;15.35;23.78
79006;BME280;69202;45.498;-73.582;2023-04-12T06:04:11;100149.69;;;15.27;23.91
79006;BME280;69202;45.498;-73.582;2023-04-12T06:06:37;100135.59;;;15.02;24.13
79006;BME280;69202;45.498;-73.582;2023-04-12T06:09:03;100108.50;;;14.95;24.11
79006;BME280;69202;45.498;-73.582;2023-04-12T06:11:30;100130.84;;;14.97;24.45
79006;BME280;69202;45.498;-73.582;2023-04-12T06:14:01;100183.31;;;15.21;24.51
79006;BME280;69202;45.498;-73.582;2023-04-12T06:16:28;100139.44;;;14.78;24.50
79006;BME280;69202;45.498;-73.582;2023-04-12T06:18:54;100177.59;;;15.06;24.86
79006;BME280;69202;45.498;-73.582;2023-04-12T06:21:20;100124.81;;;14.67;25.25
79006;BME280;69202;45.498;-73.582;2023-04-12T06:23:46;100106.63;;;14.56;25.08
79006;BME280;69202;45.498;-73.582;2023-04-12T06:26:12;100178.94;;;14.92;25.16
79006;BME280;69202;45.498;-73.582;2023-04-12T06:28:38;100133.34;;;14.70;26.21
79006;BME280;69202;45.498;-73.582;2023-04-12T06:31:04;100191.19;;;15.06;25.71
79006;BME280;69202;45.498;-73.582;2023-04-12T06:33:30;100199.88;;;15.03;25.39
79006;BME280;69202;45.498;-73.582;2023-04-12T06:35:56;100092.31;;;14.37;25.60
79006;BME280;69202;45.498;-73.582;2023-04-12T06:38:21;100198.44;;;15.00;25.63
79006;BME280;69202;45.498;-73.582;2023-04-12T06:40:47;100187.56;;;14.89;25.62
79006;BME280;69202;45.498;-73.582;2023-04-12T06:43:15;100194.22;;;14.93;25.90
79006;BME280;69202;45.498;-73.582;2023-04-12T06:45:43;100160.34;;;14.60;26.24
79006;BME280;69202;45.498;-73.582;2023-04-12T06:48:10;100200.13;;;14.90;26.24
79006;BME280;69202;45.498;-73.582;2023-04-12T06:50:36;100158.78;;;14.64;26.02
79006;BME280;69202;45.498;-73.582;2023-04-12T06:53:02;100193.19;;;14.82;26.33
79006;BME280;69202;45.498;-73.582;2023-04-12T06:55:28;100197.31;;;14.85;26.45
79006;BME280;69202;45.498;-73.582;2023-04-12T06:57:54;100213.63;;;14.85;26.64
79006;BME280;69202;45.498;-73.582;2023-04-12T07:00:21;100204.31;;;14.81;26.49
79006;BME280;69202;45.498;-73.582;2023-04-12T07:02:47;100171.56;;;14.52;26.62
79006;BME280;69202;45.498;-73.582;2023-04-12T07:05:13;100199.00;;;14.62;26.66
79006;BME280;69202;45.498;-73.582;2023-04-12T07:07:39;100203.97;;;14.65;26.96
79006;BME280;69202;45.498;-73.582;2023-04-12T07:10:05;100217.91;;;14.69;26.87
79006;BME280;69202;45.498;-73.582;2023-04-12T07:12:32;100212.47;;;14.69;27.12
79006;BME280;69202;45.498;-73.582;2023-04-12T07:14:58;100203.97;;;14.65;27.25
79006;BME280;69202;45.498;-73.582;2023-04-12T07:17:24;100171.06;;;14.43;27.15
79006;BME280;69202;45.498;-73.582;2023-04-12T07:19:53;100186.81;;;14.41;27.35
79006;BME280;69202;45.498;-73.582;2023-04-12T07:22:19;100209.75;;;14.57;27.76
79006;BME280;69202;45.498;-73.582;2023-04-12T07:24:46;100170.38;;;14.25;27.58
79006;BME280;69202;45.498;-73.582;2023-04-12T07:27:12;100210.22;;;14.42;27.90
79006;BME280;69202;45.498;-73.582;2023-04-12T07:29:38;100133.72;;;14.04;28.29
79006;BME280;69202;45.498;-73.582;2023-04-12T07:32:07;100221.25;;;14.59;28.00
79006;BME280;69202;45.498;-73.582;2023-04-12T07:34:32;100216.75;;;14.53;27.85
79006;BME280;69202;45.498;-73.582;2023-04-12T07:36:58;100237.56;;;14.48;28.12
79006;BME280;69202;45.498;-73.582;2023-04-12T07:39:25;100205.72;;;14.25;27.85
79006;BME280;69202;45.498;-73.582;2023-04-12T07:41:51;100200.88;;;14.15;28.37
79006;BME280;69202;45.498;-73.582;2023-04-12T07:44:17;100178.28;;;14.03;28.52
79006;BME280;69202;45.498;-73.582;2023-04-12T07:46:43;100184.88;;;13.95;28.78
79006;BME280;69202;45.498;-73.582;2023-04-12T07:49:09;100190.47;;;14.00;29.05
79006;BME280;69202;45.498;-73.582;2023-04-12T07:51:35;100229.94;;;14.26;28.65
79006;BME280;69202;45.498;-73.582;2023-04-12T07:54:02;100240.00;;;14.26;28.80
79006;BME280;69202;45.498;-73.582;2023-04-12T07:56:33;100195.75;;;13.95;29.30
79006;BME280;69202;45.498;-73.582;2023-04-12T07:58:59;100197.66;;;13.95;29.18
79006;BME280;69202;45.498;-73.582;2023-04-12T08:01:25;100252.75;;;14.13;29.41
79006;BME280;69202;45.498;-73.582;2023-04-12T08:03:51;100258.09;;;14.08;29.79
79006;BME280;69202;45.498;-73.582;2023-04-12T08:06:17;100195.13;;;13.70;29.98
79006;BME280;69202;45.498;-73.582;2023-04-12T08:08:43;100177.56;;;13.42;30.23
79006;BME280;69202;45.498;-73.582;2023-04-12T08:11:09;100252.50;;;13.92;30.77
79006;BME280;69202;45.498;-73.582;2023-04-12T08:13:35;100244.47;;;13.97;30.36
79006;BME280;69202;45.498;-73.582;2023-04-12T08:16:01;100247.19;;;13.97;30.58
79006;BME280;69202;45.498;-73.582;2023-04-12T08:18:27;100216.13;;;13.63;30.76
79006;BME280;69202;45.498;-73.582;2023-04-12T08:20:55;100207.47;;;13.54;30.95
79006;BME280;69202;45.498;-73.582;2023-04-12T08:23:20;100257.19;;;13.84;30.80
79006;BME280;69202;45.498;-73.582;2023-04-12T08:25:47;100249.50;;;13.81;31.20
79006;BME280;69202;45.498;-73.582;2023-04-12T08:28:13;100217.75;;;13.52;30.53
79006;BME280;69202;45.498;-73.582;2023-04-12T08:30:39;100258.84;;;13.85;30.88
79006;BME280;69202;45.498;-73.582;2023-04-12T08:33:05;100271.41;;;13.86;30.94
79006;BME280;69202;45.498;-73.582;2023-04-12T08:35:31;100267.22;;;13.84;31.35
79006;BME280;69202;45.498;-73.582;2023-04-12T08:37:57;100193.81;;;13.31;31.25
79006;BME280;69202;45.498;-73.582;2023-04-12T08:40:24;100182.25;;;13.23;31.51
79006;BME280;69202;45.498;-73.582;2023-04-12T08:42:51;100282.44;;;13.73;31.73
79006;BME280;69202;45.498;-73.582;2023-04-12T08:45:17;100224.91;;;13.35;31.52
79006;BME280;69202;45.498;-73.582;2023-04-12T08:47:43;100230.19;;;13.29;31.88
79006;BME280;69202;45.498;-73.582;2023-04-12T08:50:11;100236.34;;;13.37;31.70
79006;BME280;69202;45.498;-73.582;2023-04-12T08:52:39;100241.41;;;13.33;31.75
79006;BME280;69202;45.498;-73.582;2023-04-12T08:55:06;100254.94;;;13.51;32.14
79006;BME280;69202;45.498;-73.582;2023-04-12T08:57:34;100230.66;;;13.26;32.46
79006;BME280;69202;45.498;-73.582;2023-04-12T09:00:01;100284.97;;;13.56;32.46
79006;BME280;69202;45.498;-73.582;2023-04-12T09:02:28;100253.31;;;13.32;32.05
79006;BME280;69202;45.498;-73.582;2023-04-12T09:04:55;100238.88;;;13.20;32.37
79006;BME280;69202;45.498;-73.582;2023-04-12T09:07:22;100281.50;;;13.49;32.38
79006;BME280;69202;45.498;-73.582;2023-04-12T09:09:49;100250.31;;;13.22;32.80
79006;BME280;69202;45.498;-73.582;2023-04-12T09:12:16;100213.81;;;12.99;32.95
79006;BME280;69202;45.498;-73.582;2023-04-12T09:14:44;100254.38;;;13.13;33.61
79006;BME280;69202;45.498;-73.582;2023-04-12T09:17:24;100256.06;;;13.14;33.84
79006;BME280;69202;45.498;-73.582;2023-04-12T09:19:51;100284.03;;;13.33;33.23
79006;BME280;69202;45.498;-73.582;2023-04-12T09:22:17;100284.19;;;13.38;33.05
79006;BME280;69202;45.498;-73.582;2023-04-12T09:24:48;100278.75;;;13.38;33.43
79006;BME280;69202;45.498;-73.582;2023-04-12T09:27:16;100191.91;;;12.83;33.45
79006;BME280;69202;45.498;-73.582;2023-04-12T09:29:45;100263.31;;;13.20;33.49
79006;BME280;69202;45.498;-73.582;2023-04-12T09:32:23;100257.06;;;13.13;33.09
79006;BME280;69202;45.498;-73.582;2023-04-12T09:34:59;100200.59;;;12.73;33.38
79006;BME280;69202;45.498;-73.582;2023-04-12T09:37:26;100279.41;;;13.15;33.04
79006;BME280;69202;45.498;-73.582;2023-04-12T09:40:22;100284.22;;;13.13;33.43
79006;BME280;69202;45.498;-73.582;2023-04-12T09:42:52;100287.56;;;13.15;33.30
79006;BME280;69202;45.498;-73.582;2023-04-12T09:45:20;100236.22;;;12.77;33.63
79006;BME280;69202;45.498;-73.582;2023-04-12T09:47:47;100227.53;;;12.68;33.30
79006;BME280;69202;45.498;-73.582;2023-04-12T09:50:24;100239.63;;;12.72;33.09
79006;BME280;69202;45.498;-73.582;2023-04-12T09:52:55;100307.31;;;13.04;32.97
79006;BME280;69202;45.498;-73.582;2023-04-12T09:55:22;100303.63;;;12.98;32.64
79006;BME280;69202;45.498;-73.582;2023-04-12T09:57:50;100279.91;;;12.68;33.07
79006;BME280;69202;45.498;-73.582;2023-04-12T10:00:16;100266.34;;;12.68;33.40
79006;BME280;69202;45.498;-73.582;2023-04-12T10:02:47;100295.63;;;12.85;33.25
79006;BME280;69202;45.498;-73.582;2023-04-12T10:05:18;100325.19;;;12.93;32.66
79006;BME280;69202;45.498;-73.582;2023-04-12T10:07:45;100272.22;;;12.65;33.44
79006;BME280;69202;45.498;-73.582;2023-04-12T10:10:13;100300.63;;;12.63;33.19
79006;BME280;69202;45.498;-73.582;2023-04-12T10:12:42;100325.84;;;12.88;33.71
79006;BME280;69202;45.498;-73.582;2023-04-12T10:15:09;100332.09;;;12.89;32.86
79006;BME280;69202;45.498;-73.582;2023-04-12T10:17:46;100344.59;;;12.90;33.49
79006;BME280;69202;45.498;-73.582;2023-04-12T10:20:13;100351.03;;;12.95;33.42
79006;BME280;69202;45.498;-73.582;2023-04-12T10:22:44;100353.47;;;13.04;32.96
79006;BME280;69202;45.498;-73.582;2023-04-12T10:25:16;100297.53;;;12.59;33.11
79006;BME280;69202;45.498;-73.582;2023-04-12T10:27:43;100349.69;;;13.05;33.22
79006;BME280;69202;45.498;-73.582;2023-04-12T10:30:30;100282.47;;;12.38;33.58
79006;BME280;69202;45.498;-73.582;2023-04-12T10:35:29;100334.06;;;12.57;33.71
79006;BME280;69202;45.498;-73.582;2023-04-12T10:38:02;100373.47;;;12.84;34.53
79006;BME280;69202;45.498;-73.582;2023-04-12T10:40:30;100381.22;;;12.81;33.51
79006;BME280;69202;45.498;-73.582;2023-04-12T10:43:23;100379.50;;;12.86;34.62
79006;BME280;69202;45.498;-73.582;2023-04-12T10:45:49;100306.50;;;12.35;34.33
79006;BME280;69202;45.498;-73.582;2023-04-12T10:48:37;100382.25;;;12.80;34.38
79006;BME280;69202;45.498;-73.582;2023-04-12T10:51:19;100292.50;;;12.13;34.54
79006;BME280;69202;45.498;-73.582;2023-04-12T10:53:50;100370.41;;;12.49;34.62
79006;BME280;69202;45.498;-73.582;2023-04-12T10:58:59;100396.97;;;12.72;34.36
79006;BME280;69202;45.498;-73.582;2023-04-12T11:01:25;100393.00;;;12.68;34.83
79006;BME280;69202;45.498;-73.582;2023-04-12T11:04:11;100405.03;;;12.79;34.50
79006;BME280;69202;45.498;-73.582;2023-04-12T11:14:37;100401.09;;;12.75;34.43
79006;BME280;69202;45.498;-73.582;2023-04-12T11:22:08;100404.38;;;12.83;34.23
79006;BME280;69202;45.498;-73.582;2023-04-12T11:24:38;100302.63;;;12.24;34.88
79006;BME280;69202;45.498;-73.582;2023-04-12T11:27:04;100372.81;;;12.64;34.96
79006;BME280;69202;45.498;-73.582;2023-04-12T11:29:30;100350.91;;;12.40;34.70
79006;BME280;69202;45.498;-73.582;2023-04-12T11:32:03;100390.06;;;12.69;35.23
79006;BME280;69202;45.498;-73.582;2023-04-12T11:34:33;100407.81;;;12.72;35.46
79006;BME280;69202;45.498;-73.582;2023-04-12T11:37:00;100410.94;;;12.69;35.40
79006;BME280;69202;45.498;-73.582;2023-04-12T11:39:30;100417.59;;;12.73;35.08
79006;BME280;69202;45.498;-73.582;2023-04-12T11:41:56;100323.19;;;12.07;34.99
79006;BME280;69202;45.498;-73.582;2023-04-12T11:44:22;100422.03;;;12.67;35.68
79006;BME280;69202;45.498;-73.582;2023-04-12T11:46:48;100353.03;;;12.32;35.39
79006;BME280;69202;45.498;-73.582;2023-04-12T11:49:15;100432.38;;;12.77;34.93
79006;BME280;69202;45.498;-73.582;2023-04-12T11:51:42;100393.75;;;12.50;35.66
79006;BME280;69202;45.498;-73.582;2023-04-12T11:54:09;100429.00;;;12.82;35.65
79006;BME280;69202;45.498;-73.582;2023-04-12T11:56:36;100423.69;;;12.68;35.75
79006;BME280;69202;45.498;-73.582;2023-04-12T11:59:03;100376.78;;;12.36;36.08
79006;BME280;69202;45.498;-73.582;2023-04-12T12:01:29;100428.75;;;12.58;36.12
79006;BME280;69202;45.498;-73.582;2023-04-12T12:03:58;100384.63;;;12.20;36.36
79006;BME280;69202;45.498;-73.582;2023-04-12T12:06:24;100332.22;;;11.94;36.92
79006;BME280;69202;45.498;-73.582;2023-04-12T12:08:52;100403.00;;;12.42;36.41
79006;BME280;69202;45.498;-73.582;2023-04-12T12:11:22;100434.53;;;12.68;35.82
79006;BME280;69202;45.498;-73.582;2023-04-12T12:13:53;100429.16;;;12.62;35.80
79006;BME280;69202;45.498;-73.582;2023-04-12T12:16:27;100378.91;;;12.28;36.04
79006;BME280;69202;45.498;-73.582;2023-04-12T12:18:54;100436.41;;;12.68;36.39
79006;BME280;69202;45.498;-73.582;2023-04-12T12:21:20;100443.09;;;12.65;35.76
79006;BME280;69202;45.498;-73.582;2023-04-12T12:23:47;100376.41;;;12.26;35.91
79006;BME280;69202;45.498;-73.582;2023-04-12T12:26:21;100445.38;;;12.68;35.30
79006;BME280;69202;45.498;-73.582;2023-04-12T12:28:49;100455.13;;;12.76;36.23
79006;BME280;69202;45.498;-73.582;2023-04-12T12:31:18;100441.72;;;12.81;36.30
79006;BME280;69202;45.498;-73.582;2023-04-12T12:33:46;100385.63;;;12.50;35.50
79006;BME280;69202;45.498;-73.582;2023-04-12T12:36:12;100403.59;;;12.51;35.47
79006;BME280;69202;45.498;-73.582;2023-04-12T12:38:41;100404.53;;;12.63;35.21
79006;BME280;69202;45.498;-73.582;2023-04-12T12:43:49;100401.81;;;12.63;34.58
79006;BME280;69202;45.498;-73.582;2023-04-12T12:46:16;100392.09;;;12.49;34.78
79006;BME280;69202;45.498;-73.582;2023-04-12T12:48:43;100348.00;;;12.35;34.11
79006;BME280;69202;45.498;-73.582;2023-04-12T12:51:10;100358.06;;;12.28;34.68
79006;BME280;69202;45.498;-73.582;2023-04-12T12:53:40;100449.22;;;12.86;34.28
79006;BME280;69202;45.498;-73.582;2023-04-12T12:56:07;100374.44;;;12.40;34.34
79006;BME280;69202;45.498;-73.582;2023-04-12T12:58:34;100453.97;;;12.90;34.01
79006;BME280;69202;45.498;-73.582;2023-04-12T13:01:01;100416.13;;;12.70;33.85
79006;BME280;69202;45.498;-73.582;2023-04-12T13:03:30;100399.16;;;12.57;34.73
79006;BME280;69202;45.498;-73.582;2023-04-12T13:05:56;100449.59;;;12.89;34.21
79006;BME280;69202;45.498;-73.582;2023-04-12T13:08:23;100459.97;;;12.99;34.42
79006;BME280;69202;45.498;-73.582;2023-04-12T13:10:49;100368.19;;;12.39;34.15
79006;BME280;69202;45.498;-73.582;2023-04-12T13:13:15;100426.94;;;12.77;33.56
79006;BME280;69202;45.498;-73.582;2023-04-12T13:15:41;100407.25;;;12.63;33.54